sensor_id;sensor_type;location;lat;lon;timestamp;P1;durP1;ratioP1;P2;durP2;ratioP2
55575;SDS011;41437;45.478;9.116;2022-07-01T00:00:23;4.30;;;1.42;;
55575;SDS011;41437;45.478;9.116;2022-07-01T00:04:30;4.00;;;1.55;;
55575;SDS011;41437;45.478;9.116;2022-07-01T00:08:35;5.65;;;1.95;;
55575;SDS011;41437;45.478;9.116;2022-07-01T00:12:37;6.47;;;1.63;;
55575;SDS011;41437;45.478;9.116;2022-07-01T00:16:38;3.58;;;1.45;;
55575;SDS011;41437;45.478;9.116;2022-07-01T00:20:40;5.93;;;1.63;;
55575;SDS011;41437;45.478;9.116;2022-07-01T00:24:43;5.88;;;1.52;;
55575;SDS011;41437;45.478;9.116;2022-07-01T00:28:48;6.00;;;1.60;;
55575;SDS011;41437;45.478;9.116;2022-07-01T00:32:50;3.80;;;1.60;;
55575;SDS011;41437;45.478;9.116;2022-07-01T00:36:53;6.32;;;1.70;;
55575;SDS011;41437;45.478;9.116;2022-07-01T00:40:56;4.10;;;1.80;;
55575;SDS011;41437;45.478;9.116;2022-07-01T00:44:58;7.20;;;1.63;;
55575;SDS011;41437;45.478;9.116;2022-07-01T00:48:59;5.07;;;1.50;;
55575;SDS011;41437;45.478;9.116;2022-07-01T00:53:01;6.13;;;1.70;;
55575;SDS011;41437;45.478;9.116;2022-07-01T00:57:07;3.70;;;1.42;;
55575;SDS011;41437;45.478;9.116;2022-07-01T01:01:09;5.10;;;1.52;;
55575;SDS011;41437;45.478;9.116;2022-07-01T01:09:15;5.55;;;1.40;;
55575;SDS011;41437;45.478;9.116;2022-07-01T01:13:18;4.38;;;1.30;;
55575;SDS011;41437;45.478;9.116;2022-07-01T01:17:20;2.85;;;1.30;;
55575;SDS011;41437;45.478;9.116;2022-07-01T01:21:23;4.45;;;1.35;;
55575;SDS011;41437;45.478;9.116;2022-07-01T01:25:26;2.50;;;1.20;;
55575;SDS011;41437;45.478;9.116;2022-07-01T01:29:27;4.78;;;1.10;;
55575;SDS011;41437;45.478;9.116;2022-07-01T01:33:29;3.72;;;1.30;;
55575;SDS011;41437;45.478;9.116;2022-07-01T01:37:32;3.72;;;1.30;;
55575;SDS011;41437;45.478;9.116;2022-07-01T01:41:34;1.88;;;1.10;;
55575;SDS011;41437;45.478;9.116;2022-07-01T01:45:36;4.65;;;1.30;;
55575;SDS011;41437;45.478;9.116;2022-07-01T01:49:38;3.85;;;1.38;;
55575;SDS011;41437;45.478;9.116;2022-07-01T01:53:41;2.40;;;1.30;;
55575;SDS011;41437;45.478;9.116;2022-07-01T01:57:42;3.45;;;1.42;;
55575;SDS011;41437;45.478;9.116;2022-07-01T02:01:47;6.22;;;1.50;;
55575;SDS011;41437;45.478;9.116;2022-07-01T02:05:49;2.92;;;1.50;;
55575;SDS011;41437;45.478;9.116;2022-07-01T02:09:52;3.55;;;1.40;;
55575;SDS011;41437;45.478;9.116;2022-07-01T02:13:54;3.33;;;1.50;;
55575;SDS011;41437;45.478;9.116;2022-07-01T02:17:55;5.47;;;1.63;;
55575;SDS011;41437;45.478;9.116;2022-07-01T02:21:57;2.70;;;1.30;;
55575;SDS011;41437;45.478;9.116;2022-07-01T02:26:00;5.93;;;1.40;;
55575;SDS011;41437;45.478;9.116;2022-07-01T02:30:02;2.67;;;1.50;;
55575;SDS011;41437;45.478;9.116;2022-07-01T02:34:05;4.93;;;1.40;;
55575;SDS011;41437;45.478;9.116;2022-07-01T02:38:07;3.92;;;1.40;;
55575;SDS011;41437;45.478;9.116;2022-07-01T02:42:11;2.83;;;1.30;;
55575;SDS011;41437;45.478;9.116;2022-07-01T02:46:26;4.40;;;1.50;;
55575;SDS011;41437;45.478;9.116;2022-07-01T02:50:28;3.78;;;1.50;;
55575;SDS011;41437;45.478;9.116;2022-07-01T02:54:30;4.07;;;1.40;;
55575;SDS011;41437;45.478;9.116;2022-07-01T02:58:33;4.03;;;1.67;;
55575;SDS011;41437;45.478;9.116;2022-07-01T03:02:34;12.40;;;1.90;;
55575;SDS011;41437;45.478;9.116;2022-07-01T03:06:39;6.32;;;1.52;;
55575;SDS011;41437;45.478;9.116;2022-07-01T03:10:42;4.35;;;1.70;;
55575;SDS011;41437;45.478;9.116;2022-07-01T03:14:45;6.07;;;1.80;;
55575;SDS011;41437;45.478;9.116;2022-07-01T03:18:47;7.40;;;2.00;;
55575;SDS011;41437;45.478;9.116;2022-07-01T03:22:51;10.00;;;2.03;;
55575;SDS011;41437;45.478;9.116;2022-07-01T03:26:52;8.25;;;1.90;;
55575;SDS011;41437;45.478;9.116;2022-07-01T03:30:55;6.25;;;1.80;;
55575;SDS011;41437;45.478;9.116;2022-07-01T03:34:57;8.82;;;2.00;;
55575;SDS011;41437;45.478;9.116;2022-07-01T03:38:59;5.85;;;1.98;;
55575;SDS011;41437;45.478;9.116;2022-07-01T03:43:03;4.90;;;1.85;;
55575;SDS011;41437;45.478;9.116;2022-07-01T03:47:07;7.80;;;2.10;;
55575;SDS011;41437;45.478;9.116;2022-07-01T03:51:11;8.48;;;2.15;;
55575;SDS011;41437;45.478;9.116;2022-07-01T03:55:14;6.68;;;1.90;;
55575;SDS011;41437;45.478;9.116;2022-07-01T03:59:16;5.60;;;1.80;;
55575;SDS011;41437;45.478;9.116;2022-07-01T04:03:19;6.70;;;2.00;;
55575;SDS011;41437;45.478;9.116;2022-07-01T04:07:21;5.03;;;1.67;;
55575;SDS011;41437;45.478;9.116;2022-07-01T04:11:23;4.63;;;1.80;;
55575;SDS011;41437;45.478;9.116;2022-07-01T04:15:27;8.13;;;2.10;;
55575;SDS011;41437;45.478;9.116;2022-07-01T04:19:30;4.60;;;1.80;;
55575;SDS011;41437;45.478;9.116;2022-07-01T04:23:32;7.40;;;2.00;;
55575;SDS011;41437;45.478;9.116;2022-07-01T04:27:34;8.23;;;2.17;;
55575;SDS011;41437;45.478;9.116;2022-07-01T04:31:36;6.00;;;1.90;;
55575;SDS011;41437;45.478;9.116;2022-07-01T04:35:40;6.47;;;1.90;;
55575;SDS011;41437;45.478;9.116;2022-07-01T04:39:41;4.63;;;1.88;;
55575;SDS011;41437;45.478;9.116;2022-07-01T04:43:43;4.47;;;1.73;;
55575;SDS011;41437;45.478;9.116;2022-07-01T04:47:46;5.43;;;1.73;;
55575;SDS011;41437;45.478;9.116;2022-07-01T04:51:49;3.72;;;1.75;;
55575;SDS011;41437;45.478;9.116;2022-07-01T04:55:51;3.75;;;1.83;;
55575;SDS011;41437;45.478;9.116;2022-07-01T04:59:52;7.18;;;2.00;;
55575;SDS011;41437;45.478;9.116;2022-07-01T05:03:54;3.92;;;1.83;;
55575;SDS011;41437;45.478;9.116;2022-07-01T05:07:58;4.88;;;1.95;;
55575;SDS011;41437;45.478;9.116;2022-07-01T05:11:59;4.60;;;1.80;;
55575;SDS011;41437;45.478;9.116;2022-07-01T05:16:01;6.90;;;1.90;;
55575;SDS011;41437;45.478;9.116;2022-07-01T05:20:04;7.35;;;1.80;;
55575;SDS011;41437;45.478;9.116;2022-07-01T05:24:26;6.55;;;1.88;;
55575;SDS011;41437;45.478;9.116;2022-07-01T05:28:32;6.85;;;1.83;;
55575;SDS011;41437;45.478;9.116;2022-07-01T05:32:33;5.97;;;1.85;;
55575;SDS011;41437;45.478;9.116;2022-07-01T05:36:35;3.17;;;1.60;;
55575;SDS011;41437;45.478;9.116;2022-07-01T05:40:38;6.68;;;2.00;;
55575;SDS011;41437;45.478;9.116;2022-07-01T05:44:42;5.47;;;1.95;;
55575;SDS011;41437;45.478;9.116;2022-07-01T05:48:46;5.20;;;1.88;;
55575;SDS011;41437;45.478;9.116;2022-07-01T05:52:48;7.50;;;2.38;;
55575;SDS011;41437;45.478;9.116;2022-07-01T05:56:51;9.07;;;2.22;;
55575;SDS011;41437;45.478;9.116;2022-07-01T06:00:53;5.10;;;2.17;;
55575;SDS011;41437;45.478;9.116;2022-07-01T06:04:55;6.03;;;2.67;;
55575;SDS011;41437;45.478;9.116;2022-07-01T06:08:56;5.70;;;2.47;;
55575;SDS011;41437;45.478;9.116;2022-07-01T06:17:04;7.93;;;3.15;;
55575;SDS011;41437;45.478;9.116;2022-07-01T06:21:06;6.60;;;2.47;;
55575;SDS011;41437;45.478;9.116;2022-07-01T06:25:07;8.55;;;3.00;;
55575;SDS011;41437;45.478;9.116;2022-07-01T06:29:10;8.80;;;3.05;;
55575;SDS011;41437;45.478;9.116;2022-07-01T06:33:13;7.53;;;4.10;;
55575;SDS011;41437;45.478;9.116;2022-07-01T06:37:15;10.05;;;4.55;;
55575;SDS011;41437;45.478;9.116;2022-07-01T06:41:17;13.93;;;5.32;;
55575;SDS011;41437;45.478;9.116;2022-07-01T06:45:29;10.00;;;5.13;;
55575;SDS011;41437;45.478;9.116;2022-07-01T06:49:33;10.93;;;4.55;;
55575;SDS011;41437;45.478;9.116;2022-07-01T06:53:34;12.57;;;4.32;;
55575;SDS011;41437;45.478;9.116;2022-07-01T06:57:37;11.85;;;3.67;;
55575;SDS011;41437;45.478;9.116;2022-07-01T07:01:40;9.80;;;3.58;;
55575;SDS011;41437;45.478;9.116;2022-07-01T07:05:45;13.05;;;3.90;;
55575;SDS011;41437;45.478;9.116;2022-07-01T07:09:47;8.35;;;3.60;;
55575;SDS011;41437;45.478;9.116;2022-07-01T07:13:49;11.00;;;3.65;;
55575;SDS011;41437;45.478;9.116;2022-07-01T07:17:52;10.50;;;3.20;;
55575;SDS011;41437;45.478;9.116;2022-07-01T07:21:58;6.90;;;2.40;;
55575;SDS011;41437;45.478;9.116;2022-07-01T07:25:59;6.90;;;2.70;;
55575;SDS011;41437;45.478;9.116;2022-07-01T07:30:01;8.30;;;2.20;;
55575;SDS011;41437;45.478;9.116;2022-07-01T07:34:05;7.72;;;3.00;;
55575;SDS011;41437;45.478;9.116;2022-07-01T07:38:07;8.07;;;2.70;;
55575;SDS011;41437;45.478;9.116;2022-07-01T07:42:10;8.40;;;2.70;;
55575;SDS011;41437;45.478;9.116;2022-07-01T07:46:12;8.18;;;3.20;;
55575;SDS011;41437;45.478;9.116;2022-07-01T07:50:16;8.77;;;2.47;;
55575;SDS011;41437;45.478;9.116;2022-07-01T07:54:18;6.97;;;2.40;;
55575;SDS011;41437;45.478;9.116;2022-07-01T07:58:21;9.63;;;2.75;;
55575;SDS011;41437;45.478;9.116;2022-07-01T08:02:23;6.18;;;2.35;;
55575;SDS011;41437;45.478;9.116;2022-07-01T08:06:26;8.75;;;2.20;;
55575;SDS011;41437;45.478;9.116;2022-07-01T08:10:31;6.40;;;2.22;;
55575;SDS011;41437;45.478;9.116;2022-07-01T08:14:32;5.53;;;2.15;;
55575;SDS011;41437;45.478;9.116;2022-07-01T08:18:37;5.47;;;2.15;;
55575;SDS011;41437;45.478;9.116;2022-07-01T08:22:40;4.57;;;2.20;;
55575;SDS011;41437;45.478;9.116;2022-07-01T08:26:42;4.83;;;1.77;;
55575;SDS011;41437;45.478;9.116;2022-07-01T08:30:44;9.00;;;2.42;;
55575;SDS011;41437;45.478;9.116;2022-07-01T08:34:47;4.75;;;1.90;;
55575;SDS011;41437;45.478;9.116;2022-07-01T08:38:50;9.00;;;3.25;;
55575;SDS011;41437;45.478;9.116;2022-07-01T08:42:54;7.47;;;2.13;;
55575;SDS011;41437;45.478;9.116;2022-07-01T08:46:58;5.43;;;2.00;;
55575;SDS011;41437;45.478;9.116;2022-07-01T08:51:00;5.07;;;2.17;;
55575;SDS011;41437;45.478;9.116;2022-07-01T08:55:06;8.88;;;2.00;;
55575;SDS011;41437;45.478;9.116;2022-07-01T08:59:08;4.43;;;2.03;;
55575;SDS011;41437;45.478;9.116;2022-07-01T09:03:13;4.80;;;2.30;;
55575;SDS011;41437;45.478;9.116;2022-07-01T09:07:18;5.72;;;2.17;;
55575;SDS011;41437;45.478;9.116;2022-07-01T09:11:21;5.50;;;2.13;;
55575;SDS011;41437;45.478;9.116;2022-07-01T09:15:27;8.88;;;2.58;;
55575;SDS011;41437;45.478;9.116;2022-07-01T09:19:31;10.25;;;2.58;;
55575;SDS011;41437;45.478;9.116;2022-07-01T09:23:36;10.38;;;2.42;;
55575;SDS011;41437;45.478;9.116;2022-07-01T09:27:40;5.27;;;2.20;;
55575;SDS011;41437;45.478;9.116;2022-07-01T09:31:47;10.05;;;2.40;;
55575;SDS011;41437;45.478;9.116;2022-07-01T09:35:50;7.03;;;2.20;;
55575;SDS011;41437;45.478;9.116;2022-07-01T09:39:53;5.55;;;2.30;;
55575;SDS011;41437;45.478;9.116;2022-07-01T09:43:57;5.20;;;2.22;;
55575;SDS011;41437;45.478;9.116;2022-07-01T09:48:07;5.13;;;2.20;;
55575;SDS011;41437;45.478;9.116;2022-07-01T09:56:14;6.68;;;2.38;;
55575;SDS011;41437;45.478;9.116;2022-07-01T10:00:22;8.32;;;2.80;;
55575;SDS011;41437;45.478;9.116;2022-07-01T10:04:25;5.93;;;2.40;;
55575;SDS011;41437;45.478;9.116;2022-07-01T10:12:57;7.55;;;2.35;;
55575;SDS011;41437;45.478;9.116;2022-07-01T10:21:04;7.60;;;2.30;;
55575;SDS011;41437;45.478;9.116;2022-07-01T10:29:30;8.07;;;2.47;;
55575;SDS011;41437;45.478;9.116;2022-07-01T10:33:40;5.38;;;2.42;;
55575;SDS011;41437;45.478;9.116;2022-07-01T10:37:56;7.53;;;2.25;;
55575;SDS011;41437;45.478;9.116;2022-07-01T10:42:00;5.32;;;2.50;;
55575;SDS011;41437;45.478;9.116;2022-07-01T10:46:09;8.10;;;2.60;;
55575;SDS011;41437;45.478;9.116;2022-07-01T10:50:14;6.60;;;2.75;;
55575;SDS011;41437;45.478;9.116;2022-07-01T10:58:48;7.15;;;2.50;;
55575;SDS011;41437;45.478;9.116;2022-07-01T11:03:06;7.40;;;2.60;;
55575;SDS011;41437;45.478;9.116;2022-07-01T11:07:11;8.25;;;2.60;;
55575;SDS011;41437;45.478;9.116;2022-07-01T11:11:13;10.23;;;2.60;;
55575;SDS011;41437;45.478;9.116;2022-07-01T11:15:15;7.20;;;2.55;;
55575;SDS011;41437;45.478;9.116;2022-07-01T11:19:17;7.68;;;2.40;;
55575;SDS011;41437;45.478;9.116;2022-07-01T11:23:27;5.63;;;2.50;;
55575;SDS011;41437;45.478;9.116;2022-07-01T11:27:29;5.82;;;2.60;;
55575;SDS011;41437;45.478;9.116;2022-07-01T11:31:35;7.87;;;2.60;;
55575;SDS011;41437;45.478;9.116;2022-07-01T11:35:37;5.63;;;2.92;;
55575;SDS011;41437;45.478;9.116;2022-07-01T11:40:04;8.30;;;2.70;;
55575;SDS011;41437;45.478;9.116;2022-07-01T11:44:07;4.63;;;2.47;;
55575;SDS011;41437;45.478;9.116;2022-07-01T11:48:09;7.70;;;2.70;;
55575;SDS011;41437;45.478;9.116;2022-07-01T11:52:14;4.70;;;2.30;;
55575;SDS011;41437;45.478;9.116;2022-07-01T11:56:27;8.57;;;2.53;;
55575;SDS011;41437;45.478;9.116;2022-07-01T12:00:32;9.30;;;2.72;;
55575;SDS011;41437;45.478;9.116;2022-07-01T12:04:35;6.65;;;2.90;;
55575;SDS011;41437;45.478;9.116;2022-07-01T12:08:37;7.13;;;2.50;;
55575;SDS011;41437;45.478;9.116;2022-07-01T12:12:40;6.57;;;2.65;;
55575;SDS011;41437;45.478;9.116;2022-07-01T12:16:43;5.75;;;2.50;;
55575;SDS011;41437;45.478;9.116;2022-07-01T12:20:49;6.88;;;2.63;;
55575;SDS011;41437;45.478;9.116;2022-07-01T12:24:52;6.10;;;2.42;;
55575;SDS011;41437;45.478;9.116;2022-07-01T12:29:12;7.63;;;3.17;;
55575;SDS011;41437;45.478;9.116;2022-07-01T12:33:17;9.15;;;3.10;;
55575;SDS011;41437;45.478;9.116;2022-07-01T12:37:21;8.27;;;2.65;;
55575;SDS011;41437;45.478;9.116;2022-07-01T12:41:28;5.95;;;2.38;;
55575;SDS011;41437;45.478;9.116;2022-07-01T12:45:32;6.23;;;2.57;;
55575;SDS011;41437;45.478;9.116;2022-07-01T12:49:42;8.43;;;2.50;;
55575;SDS011;41437;45.478;9.116;2022-07-01T12:53:44;5.63;;;2.38;;
55575;SDS011;41437;45.478;9.116;2022-07-01T12:57:49;6.72;;;2.33;;
55575;SDS011;41437;45.478;9.116;2022-07-01T13:01:56;7.30;;;2.38;;
55575;SDS011;41437;45.478;9.116;2022-07-01T13:06:01;5.15;;;2.17;;
55575;SDS011;41437;45.478;9.116;2022-07-01T13:10:03;5.72;;;2.30;;
55575;SDS011;41437;45.478;9.116;2022-07-01T13:14:05;9.13;;;2.30;;
55575;SDS011;41437;45.478;9.116;2022-07-01T13:18:11;7.53;;;2.67;;
55575;SDS011;41437;45.478;9.116;2022-07-01T13:22:14;5.55;;;2.58;;
55575;SDS011;41437;45.478;9.116;2022-07-01T13:26:16;5.72;;;2.40;;
55575;SDS011;41437;45.478;9.116;2022-07-01T13:34:23;7.25;;;2.55;;
55575;SDS011;41437;45.478;9.116;2022-07-01T13:38:25;7.22;;;2.40;;
55575;SDS011;41437;45.478;9.116;2022-07-01T13:42:26;5.60;;;2.10;;
55575;SDS011;41437;45.478;9.116;2022-07-01T13:46:28;5.05;;;2.22;;
55575;SDS011;41437;45.478;9.116;2022-07-01T13:50:31;7.93;;;2.70;;
55575;SDS011;41437;45.478;9.116;2022-07-01T13:54:35;6.20;;;2.50;;
55575;SDS011;41437;45.478;9.116;2022-07-01T13:58:36;9.43;;;4.55;;
55575;SDS011;41437;45.478;9.116;2022-07-01T14:02:38;6.88;;;3.10;;
55575;SDS011;41437;45.478;9.116;2022-07-01T14:06:41;7.00;;;2.95;;
55575;SDS011;41437;45.478;9.116;2022-07-01T14:10:43;7.53;;;3.08;;
55575;SDS011;41437;45.478;9.116;2022-07-01T14:14:46;6.73;;;2.57;;
55575;SDS011;41437;45.478;9.116;2022-07-01T14:18:47;9.18;;;2.75;;
55575;SDS011;41437;45.478;9.116;2022-07-01T14:22:52;6.20;;;2.30;;
55575;SDS011;41437;45.478;9.116;2022-07-01T14:26:54;5.35;;;2.20;;
55575;SDS011;41437;45.478;9.116;2022-07-01T14:30:56;4.43;;;2.25;;
55575;SDS011;41437;45.478;9.116;2022-07-01T14:34:57;5.07;;;2.22;;
55575;SDS011;41437;45.478;9.116;2022-07-01T14:39:00;5.88;;;2.22;;
55575;SDS011;41437;45.478;9.116;2022-07-01T14:43:02;6.70;;;2.00;;
55575;SDS011;41437;45.478;9.116;2022-07-01T14:47:06;4.78;;;1.92;;
55575;SDS011;41437;45.478;9.116;2022-07-01T14:51:07;5.30;;;1.92;;
55575;SDS011;41437;45.478;9.116;2022-07-01T14:55:11;5.32;;;2.28;;
55575;SDS011;41437;45.478;9.116;2022-07-01T15:03:14;5.95;;;2.40;;
55575;SDS011;41437;45.478;9.116;2022-07-01T15:07:16;5.93;;;2.30;;
55575;SDS011;41437;45.478;9.116;2022-07-01T15:11:19;6.03;;;2.10;;
55575;SDS011;41437;45.478;9.116;2022-07-01T15:15:21;7.43;;;2.00;;
55575;SDS011;41437;45.478;9.116;2022-07-01T15:19:22;6.15;;;2.00;;
55575;SDS011;41437;45.478;9.116;2022-07-01T15:23:25;7.63;;;2.42;;
55575;SDS011;41437;45.478;9.116;2022-07-01T15:27:29;4.25;;;2.30;;
55575;SDS011;41437;45.478;9.116;2022-07-01T15:31:31;5.03;;;2.20;;
55575;SDS011;41437;45.478;9.116;2022-07-01T15:35:32;5.72;;;2.40;;
55575;SDS011;41437;45.478;9.116;2022-07-01T15:39:34;5.50;;;2.35;;
55575;SDS011;41437;45.478;9.116;2022-07-01T15:43:37;6.32;;;2.25;;
55575;SDS011;41437;45.478;9.116;2022-07-01T15:47:39;9.15;;;2.40;;
55575;SDS011;41437;45.478;9.116;2022-07-01T15:51:58;5.88;;;2.00;;
55575;SDS011;41437;45.478;9.116;2022-07-01T15:56:00;7.47;;;2.30;;
55575;SDS011;41437;45.478;9.116;2022-07-01T16:00:03;5.00;;;2.28;;
55575;SDS011;41437;45.478;9.116;2022-07-01T16:04:06;5.75;;;2.20;;
55575;SDS011;41437;45.478;9.116;2022-07-01T16:08:08;6.55;;;2.20;;
55575;SDS011;41437;45.478;9.116;2022-07-01T16:12:12;5.15;;;1.85;;
55575;SDS011;41437;45.478;9.116;2022-07-01T16:16:19;4.07;;;2.00;;
55575;SDS011;41437;45.478;9.116;2022-07-01T16:20:22;5.05;;;1.90;;
55575;SDS011;41437;45.478;9.116;2022-07-01T16:24:24;5.85;;;2.10;;
55575;SDS011;41437;45.478;9.116;2022-07-01T16:28:26;6.35;;;1.95;;
55575;SDS011;41437;45.478;9.116;2022-07-01T16:32:32;6.05;;;2.25;;
55575;SDS011;41437;45.478;9.116;2022-07-01T16:36:36;5.72;;;2.25;;
55575;SDS011;41437;45.478;9.116;2022-07-01T16:40:43;7.15;;;2.38;;
55575;SDS011;41437;45.478;9.116;2022-07-01T16:44:56;6.68;;;2.10;;
55575;SDS011;41437;45.478;9.116;2022-07-01T16:49:02;7.43;;;2.35;;
55575;SDS011;41437;45.478;9.116;2022-07-01T16:53:12;7.82;;;2.72;;
55575;SDS011;41437;45.478;9.116;2022-07-01T16:57:16;5.70;;;2.28;;
55575;SDS011;41437;45.478;9.116;2022-07-01T17:01:22;6.47;;;2.00;;
55575;SDS011;41437;45.478;9.116;2022-07-01T17:05:26;5.93;;;2.40;;
55575;SDS011;41437;45.478;9.116;2022-07-01T17:09:29;6.13;;;2.80;;
55575;SDS011;41437;45.478;9.116;2022-07-01T17:13:33;5.60;;;2.25;;
55575;SDS011;41437;45.478;9.116;2022-07-01T17:17:35;9.57;;;3.80;;
55575;SDS011;41437;45.478;9.116;2022-07-01T17:25:43;7.45;;;2.45;;
55575;SDS011;41437;45.478;9.116;2022-07-01T17:29:52;5.93;;;2.88;;
55575;SDS011;41437;45.478;9.116;2022-07-01T17:33:57;6.88;;;2.45;;
55575;SDS011;41437;45.478;9.116;2022-07-01T17:38:01;5.68;;;2.53;;
55575;SDS011;41437;45.478;9.116;2022-07-01T17:42:04;5.75;;;2.40;;
55575;SDS011;41437;45.478;9.116;2022-07-01T17:46:06;10.73;;;2.60;;
55575;SDS011;41437;45.478;9.116;2022-07-01T17:50:11;6.05;;;2.28;;
55575;SDS011;41437;45.478;9.116;2022-07-01T17:54:15;8.30;;;2.90;;
55575;SDS011;41437;45.478;9.116;2022-07-01T17:58:18;8.38;;;2.50;;
55575;SDS011;41437;45.478;9.116;2022-07-01T18:02:20;6.35;;;2.65;;
55575;SDS011;41437;45.478;9.116;2022-07-01T18:06:23;7.78;;;2.80;;
55575;SDS011;41437;45.478;9.116;2022-07-01T18:10:30;7.72;;;2.88;;
55575;SDS011;41437;45.478;9.116;2022-07-01T18:14:41;8.98;;;3.30;;
55575;SDS011;41437;45.478;9.116;2022-07-01T18:18:53;5.40;;;2.70;;
55575;SDS011;41437;45.478;9.116;2022-07-01T18:23:08;6.70;;;2.60;;
55575;SDS011;41437;45.478;9.116;2022-07-01T18:27:16;5.32;;;2.83;;
55575;SDS011;41437;45.478;9.116;2022-07-01T18:31:22;8.77;;;3.08;;
55575;SDS011;41437;45.478;9.116;2022-07-01T18:35:28;6.97;;;2.90;;
55575;SDS011;41437;45.478;9.116;2022-07-01T18:39:32;7.45;;;2.83;;
55575;SDS011;41437;45.478;9.116;2022-07-01T18:43:35;6.53;;;2.55;;
55575;SDS011;41437;45.478;9.116;2022-07-01T18:47:38;8.35;;;2.80;;
55575;SDS011;41437;45.478;9.116;2022-07-01T18:51:40;6.47;;;2.85;;
55575;SDS011;41437;45.478;9.116;2022-07-01T18:55:42;7.30;;;2.90;;
55575;SDS011;41437;45.478;9.116;2022-07-01T18:59:45;6.20;;;3.03;;
55575;SDS011;41437;45.478;9.116;2022-07-01T19:03:47;7.10;;;3.03;;
55575;SDS011;41437;45.478;9.116;2022-07-01T19:07:48;9.68;;;3.15;;
55575;SDS011;41437;45.478;9.116;2022-07-01T19:11:50;5.82;;;2.97;;
55575;SDS011;41437;45.478;9.116;2022-07-01T19:15:53;6.90;;;2.80;;
55575;SDS011;41437;45.478;9.116;2022-07-01T19:19:55;9.97;;;2.87;;
55575;SDS011;41437;45.478;9.116;2022-07-01T19:23:57;7.55;;;2.75;;
55575;SDS011;41437;45.478;9.116;2022-07-01T19:28:01;8.30;;;3.00;;
55575;SDS011;41437;45.478;9.116;2022-07-01T19:32:06;7.68;;;3.55;;
55575;SDS011;41437;45.478;9.116;2022-07-01T19:36:07;6.30;;;3.47;;
55575;SDS011;41437;45.478;9.116;2022-07-01T19:40:09;11.40;;;3.88;;
55575;SDS011;41437;45.478;9.116;2022-07-01T19:44:12;7.28;;;3.50;;
55575;SDS011;41437;45.478;9.116;2022-07-01T19:48:15;7.72;;;2.70;;
55575;SDS011;41437;45.478;9.116;2022-07-01T19:52:17;6.93;;;3.10;;
55575;SDS011;41437;45.478;9.116;2022-07-01T19:56:18;9.48;;;3.15;;
55575;SDS011;41437;45.478;9.116;2022-07-01T20:00:20;6.45;;;2.90;;
55575;SDS011;41437;45.478;9.116;2022-07-01T20:04:23;7.00;;;2.90;;
55575;SDS011;41437;45.478;9.116;2022-07-01T20:08:25;4.53;;;2.60;;
55575;SDS011;41437;45.478;9.116;2022-07-01T20:12:28;6.43;;;2.85;;
55575;SDS011;41437;45.478;9.116;2022-07-01T20:16:30;9.70;;;3.15;;
55575;SDS011;41437;45.478;9.116;2022-07-01T20:20:33;7.10;;;2.67;;
55575;SDS011;41437;45.478;9.116;2022-07-01T20:24:34;5.60;;;2.60;;
55575;SDS011;41437;45.478;9.116;2022-07-01T20:28:36;5.63;;;2.38;;
55575;SDS011;41437;45.478;9.116;2022-07-01T20:32:38;5.40;;;2.55;;
55575;SDS011;41437;45.478;9.116;2022-07-01T20:36:41;7.43;;;2.70;;
55575;SDS011;41437;45.478;9.116;2022-07-01T20:40:43;6.37;;;2.50;;
55575;SDS011;41437;45.478;9.116;2022-07-01T20:44:45;7.10;;;2.45;;
55575;SDS011;41437;45.478;9.116;2022-07-01T20:48:47;4.60;;;2.20;;
55575;SDS011;41437;45.478;9.116;2022-07-01T20:52:50;7.93;;;2.60;;
55575;SDS011;41437;45.478;9.116;2022-07-01T20:56:51;6.57;;;2.58;;
55575;SDS011;41437;45.478;9.116;2022-07-01T21:00:53;6.63;;;2.65;;
55575;SDS011;41437;45.478;9.116;2022-07-01T21:04:55;6.07;;;2.65;;
55575;SDS011;41437;45.478;9.116;2022-07-01T21:09:13;5.70;;;2.58;;
55575;SDS011;41437;45.478;9.116;2022-07-01T21:13:15;5.20;;;2.50;;
55575;SDS011;41437;45.478;9.116;2022-07-01T21:17:17;6.18;;;2.60;;
55575;SDS011;41437;45.478;9.116;2022-07-01T21:21:20;7.50;;;2.42;;
55575;SDS011;41437;45.478;9.116;2022-07-01T21:25:23;9.48;;;2.60;;
55575;SDS011;41437;45.478;9.116;2022-07-01T21:29:25;5.28;;;2.50;;
55575;SDS011;41437;45.478;9.116;2022-07-01T21:33:27;6.10;;;2.63;;
55575;SDS011;41437;45.478;9.116;2022-07-01T21:37:31;9.48;;;2.80;;
55575;SDS011;41437;45.478;9.116;2022-07-01T21:41:35;6.78;;;2.60;;
55575;SDS011;41437;45.478;9.116;2022-07-01T21:45:42;5.22;;;2.95;;
55575;SDS011;41437;45.478;9.116;2022-07-01T21:49:44;8.38;;;2.88;;
55575;SDS011;41437;45.478;9.116;2022-07-01T21:53:46;7.18;;;2.90;;
55575;SDS011;41437;45.478;9.116;2022-07-01T21:57:50;5.05;;;2.60;;
55575;SDS011;41437;45.478;9.116;2022-07-01T22:01:54;6.45;;;3.03;;
55575;SDS011;41437;45.478;9.116;2022-07-01T22:05:56;5.85;;;2.80;;
55575;SDS011;41437;45.478;9.116;2022-07-01T22:10:18;5.07;;;2.35;;
55575;SDS011;41437;45.478;9.116;2022-07-01T22:14:21;7.40;;;2.70;;
55575;SDS011;41437;45.478;9.116;2022-07-01T22:22:28;7.10;;;2.70;;
55575;SDS011;41437;45.478;9.116;2022-07-01T22:26:30;7.90;;;2.90;;
55575;SDS011;41437;45.478;9.116;2022-07-01T22:30:34;7.25;;;3.03;;
55575;SDS011;41437;45.478;9.116;2022-07-01T22:34:38;7.68;;;2.80;;
55575;SDS011;41437;45.478;9.116;2022-07-01T22:38:41;7.15;;;3.22;;
55575;SDS011;41437;45.478;9.116;2022-07-01T22:42:43;7.50;;;3.25;;
55575;SDS011;41437;45.478;9.116;2022-07-01T22:47:10;9.45;;;3.60;;
55575;SDS011;41437;45.478;9.116;2022-07-01T22:51:18;7.72;;;3.30;;
55575;SDS011;41437;45.478;9.116;2022-07-01T22:55:28;5.38;;;3.17;;
55575;SDS011;41437;45.478;9.116;2022-07-01T22:59:35;8.60;;;3.28;;
55575;SDS011;41437;45.478;9.116;2022-07-01T23:03:39;8.88;;;3.10;;
55575;SDS011;41437;45.478;9.116;2022-07-01T23:07:48;6.25;;;2.85;;
55575;SDS011;41437;45.478;9.116;2022-07-01T23:11:54;7.75;;;3.05;;
55575;SDS011;41437;45.478;9.116;2022-07-01T23:15:58;8.25;;;3.22;;
55575;SDS011;41437;45.478;9.116;2022-07-01T23:20:22;7.10;;;3.30;;
55575;SDS011;41437;45.478;9.116;2022-07-01T23:24:25;9.55;;;3.30;;
55575;SDS011;41437;45.478;9.116;2022-07-01T23:28:26;8.55;;;3.30;;
55575;SDS011;41437;45.478;9.116;2022-07-01T23:32:33;8.27;;;3.30;;
55575;SDS011;41437;45.478;9.116;2022-07-01T23:36:36;7.07;;;3.70;;
55575;SDS011;41437;45.478;9.116;2022-07-01T23:40:39;5.60;;;3.50;;
55575;SDS011;41437;45.478;9.116;2022-07-01T23:44:41;6.40;;;3.60;;
55575;SDS011;41437;45.478;9.116;2022-07-01T23:48:42;7.72;;;3.42;;
55575;SDS011;41437;45.478;9.116;2022-07-01T23:52:46;8.10;;;3.78;;
55575;SDS011;41437;45.478;9.116;2022-07-01T23:56:47;7.60;;;3.60;;
